sensor_id;sensor_type;location;lat;lon;timestamp;temperature;humidity
22742;DHT22;11538;48.884;8.696;2022-11-23T00:01:11;5.80;99.90
22742;DHT22;11538;48.884;8.696;2022-11-23T00:03:50;5.80;99.90
22742;DHT22;11538;48.884;8.696;2022-11-23T00:06:19;5.70;99.90
22742;DHT22;11538;48.884;8.696;2022-11-23T00:08:49;5.70;99.90
22742;DHT22;11538;48.884;8.696;2022-11-23T00:11:17;5.70;99.90
22742;DHT22;11538;48.884;8.696;2022-11-23T00:13:45;5.70;99.90
22742;DHT22;11538;48.884;8.696;2022-11-23T00:16:13;5.80;99.90
22742;DHT22;11538;48.884;8.696;2022-11-23T00:18:47;5.80;99.90
22742;DHT22;11538;48.884;8.696;2022-11-23T00:21:17;5.80;99.90
22742;DHT22;11538;48.884;8.696;2022-11-23T00:23:45;5.80;99.90
22742;DHT22;11538;48.884;8.696;2022-11-23T00:26:12;5.80;99.90
22742;DHT22;11538;48.884;8.696;2022-11-23T00:28:40;5.80;99.90
22742;DHT22;11538;48.884;8.696;2022-11-23T00:31:08;5.90;99.90
22742;DHT22;11538;48.884;8.696;2022-11-23T00:33:36;5.80;99.90
22742;DHT22;11538;48.884;8.696;2022-11-23T00:36:10;5.80;99.90
22742;DHT22;11538;48.884;8.696;2022-11-23T00:38:39;5.80;99.90
22742;DHT22;11538;48.884;8.696;2022-11-23T00:41:08;5.70;99.90
22742;DHT22;11538;48.884;8.696;2022-11-23T00:43:37;5.70;99.90
22742;DHT22;11538;48.884;8.696;2022-11-23T00:46:14;5.70;99.90
22742;DHT22;11538;48.884;8.696;2022-11-23T00:48:47;5.80;99.90
22742;DHT22;11538;48.884;8.696;2022-11-23T00:51:16;5.80;99.90
22742;DHT22;11538;48.884;8.696;2022-11-23T00:53:47;5.80;99.90
22742;DHT22;11538;48.884;8.696;2022-11-23T00:56:15;5.80;99.90
22742;DHT22;11538;48.884;8.696;2022-11-23T00:58:47;5.80;99.90
22742;DHT22;11538;48.884;8.696;2022-11-23T01:01:16;5.90;99.90
22742;DHT22;11538;48.884;8.696;2022-11-23T01:03:45;5.90;99.90
22742;DHT22;11538;48.884;8.696;2022-11-23T01:06:15;5.80;99.90
22742;DHT22;11538;48.884;8.696;2022-11-23T01:08:48;5.80;99.90
22742;DHT22;11538;48.884;8.696;2022-11-23T01:11:16;5.80;99.90
22742;DHT22;11538;48.884;8.696;2022-11-23T01:13:43;5.80;99.90
22742;DHT22;11538;48.884;8.696;2022-11-23T01:16:14;5.70;99.90
22742;DHT22;11538;48.884;8.696;2022-11-23T01:18:57;5.70;99.90
22742;DHT22;11538;48.884;8.696;2022-11-23T01:21:26;5.60;99.90
22742;DHT22;11538;48.884;8.696;2022-11-23T01:23:54;5.60;99.90
22742;DHT22;11538;48.884;8.696;2022-11-23T01:26:21;5.70;99.90
22742;DHT22;11538;48.884;8.696;2022-11-23T01:28:49;5.60;99.90
22742;DHT22;11538;48.884;8.696;2022-11-23T01:31:25;5.60;99.90
22742;DHT22;11538;48.884;8.696;2022-11-23T01:33:53;5.60;99.90
22742;DHT22;11538;48.884;8.696;2022-11-23T01:36:22;5.50;99.90
22742;DHT22;11538;48.884;8.696;2022-11-23T01:38:51;5.50;99.90
22742;DHT22;11538;48.884;8.696;2022-11-23T01:41:19;5.50;99.90
22742;DHT22;11538;48.884;8.696;2022-11-23T01:43:47;5.40;99.90
22742;DHT22;11538;48.884;8.696;2022-11-23T01:46:15;5.40;99.90
22742;DHT22;11538;48.884;8.696;2022-11-23T01:51:36;5.40;99.90
22742;DHT22;11538;48.884;8.696;2022-11-23T01:54:11;5.40;99.90
22742;DHT22;11538;48.884;8.696;2022-11-23T01:56:43;5.40;99.90
22742;DHT22;11538;48.884;8.696;2022-11-23T01:59:14;5.30;99.90
22742;DHT22;11538;48.884;8.696;2022-11-23T02:01:42;5.30;99.90
22742;DHT22;11538;48.884;8.696;2022-11-23T02:04:15;5.30;99.90
22742;DHT22;11538;48.884;8.696;2022-11-23T02:06:47;5.30;99.90
22742;DHT22;11538;48.884;8.696;2022-11-23T02:09:15;5.20;99.90
22742;DHT22;11538;48.884;8.696;2022-11-23T02:11:43;5.10;99.90
22742;DHT22;11538;48.884;8.696;2022-11-23T02:14:10;5.10;99.90
22742;DHT22;11538;48.884;8.696;2022-11-23T02:16:37;5.10;99.90
22742;DHT22;11538;48.884;8.696;2022-11-23T02:19:06;5.00;99.90
22742;DHT22;11538;48.884;8.696;2022-11-23T02:21:39;5.00;99.90
22742;DHT22;11538;48.884;8.696;2022-11-23T02:24:13;5.00;99.90
22742;DHT22;11538;48.884;8.696;2022-11-23T02:26:48;5.00;99.90
22742;DHT22;11538;48.884;8.696;2022-11-23T02:29:25;5.00;99.90
22742;DHT22;11538;48.884;8.696;2022-11-23T02:31:53;5.00;99.90
22742;DHT22;11538;48.884;8.696;2022-11-23T02:34:20;4.90;99.90
22742;DHT22;11538;48.884;8.696;2022-11-23T02:36:47;4.90;99.90
22742;DHT22;11538;48.884;8.696;2022-11-23T02:39:29;4.90;99.90
22742;DHT22;11538;48.884;8.696;2022-11-23T02:42:03;4.90;99.90
22742;DHT22;11538;48.884;8.696;2022-11-23T02:44:45;4.90;99.90
22742;DHT22;11538;48.884;8.696;2022-11-23T02:47:17;4.90;99.90
22742;DHT22;11538;48.884;8.696;2022-11-23T02:49:47;4.90;99.90
22742;DHT22;11538;48.884;8.696;2022-11-23T02:52:15;4.90;99.90
22742;DHT22;11538;48.884;8.696;2022-11-23T02:54:42;5.00;99.90
22742;DHT22;11538;48.884;8.696;2022-11-23T02:57:09;5.00;99.90
22742;DHT22;11538;48.884;8.696;2022-11-23T02:59:36;5.00;99.90
22742;DHT22;11538;48.884;8.696;2022-11-23T03:02:03;5.00;99.90
22742;DHT22;11538;48.884;8.696;2022-11-23T03:04:30;5.00;99.90
22742;DHT22;11538;48.884;8.696;2022-11-23T03:06:57;5.10;99.90
22742;DHT22;11538;48.884;8.696;2022-11-23T03:09:24;5.10;99.90
22742;DHT22;11538;48.884;8.696;2022-11-23T03:11:52;5.10;99.90
22742;DHT22;11538;48.884;8.696;2022-11-23T03:14:19;5.10;99.90
22742;DHT22;11538;48.884;8.696;2022-11-23T03:16:46;5.20;99.90
22742;DHT22;11538;48.884;8.696;2022-11-23T03:19:14;5.20;99.90
22742;DHT22;11538;48.884;8.696;2022-11-23T03:21:40;5.20;99.90
22742;DHT22;11538;48.884;8.696;2022-11-23T03:24:07;5.30;99.90
22742;DHT22;11538;48.884;8.696;2022-11-23T03:26:34;5.30;99.90
22742;DHT22;11538;48.884;8.696;2022-11-23T03:29:01;5.30;99.90
22742;DHT22;11538;48.884;8.696;2022-11-23T03:31:28;5.40;99.90
22742;DHT22;11538;48.884;8.696;2022-11-23T03:33:55;5.40;99.90
22742;DHT22;11538;48.884;8.696;2022-11-23T03:36:21;5.50;99.90
22742;DHT22;11538;48.884;8.696;2022-11-23T03:38:48;5.50;99.90
22742;DHT22;11538;48.884;8.696;2022-11-23T03:41:15;5.60;99.90
22742;DHT22;11538;48.884;8.696;2022-11-23T03:43:41;5.60;99.90
22742;DHT22;11538;48.884;8.696;2022-11-23T03:46:08;5.60;99.90
22742;DHT22;11538;48.884;8.696;2022-11-23T03:48:35;5.60;99.90
22742;DHT22;11538;48.884;8.696;2022-11-23T03:51:02;5.60;99.90
22742;DHT22;11538;48.884;8.696;2022-11-23T03:53:29;5.60;99.90
22742;DHT22;11538;48.884;8.696;2022-11-23T03:55:55;5.60;99.90
22742;DHT22;11538;48.884;8.696;2022-11-23T03:58:23;5.60;99.90
22742;DHT22;11538;48.884;8.696;2022-11-23T04:00:50;5.60;99.90
22742;DHT22;11538;48.884;8.696;2022-11-23T04:03:17;5.70;99.90
22742;DHT22;11538;48.884;8.696;2022-11-23T04:05:44;5.60;99.90
22742;DHT22;11538;48.884;8.696;2022-11-23T04:08:10;5.70;99.90
22742;DHT22;11538;48.884;8.696;2022-11-23T04:10:37;5.70;99.90
22742;DHT22;11538;48.884;8.696;2022-11-23T04:13:04;5.70;99.90
22742;DHT22;11538;48.884;8.696;2022-11-23T04:15:31;5.70;99.90
22742;DHT22;11538;48.884;8.696;2022-11-23T04:17:58;5.70;99.90
22742;DHT22;11538;48.884;8.696;2022-11-23T04:20:25;5.70;99.90
22742;DHT22;11538;48.884;8.696;2022-11-23T04:22:52;5.80;99.90
22742;DHT22;11538;48.884;8.696;2022-11-23T04:25:19;5.80;99.90
22742;DHT22;11538;48.884;8.696;2022-11-23T04:27:45;5.80;99.90
22742;DHT22;11538;48.884;8.696;2022-11-23T04:30:12;5.80;99.90
22742;DHT22;11538;48.884;8.696;2022-11-23T04:32:40;5.90;99.90
22742;DHT22;11538;48.884;8.696;2022-11-23T04:35:10;5.90;99.90
22742;DHT22;11538;48.884;8.696;2022-11-23T04:37:37;5.80;99.90
22742;DHT22;11538;48.884;8.696;2022-11-23T04:40:04;5.80;99.90
22742;DHT22;11538;48.884;8.696;2022-11-23T04:42:32;5.80;99.90
22742;DHT22;11538;48.884;8.696;2022-11-23T04:44:59;5.80;99.90
22742;DHT22;11538;48.884;8.696;2022-11-23T04:47:25;5.70;99.90
22742;DHT22;11538;48.884;8.696;2022-11-23T04:49:52;5.70;99.90
22742;DHT22;11538;48.884;8.696;2022-11-23T04:52:19;5.80;99.90
22742;DHT22;11538;48.884;8.696;2022-11-23T04:54:45;5.80;99.90
22742;DHT22;11538;48.884;8.696;2022-11-23T04:57:12;5.80;99.90
22742;DHT22;11538;48.884;8.696;2022-11-23T04:59:39;5.70;99.90
22742;DHT22;11538;48.884;8.696;2022-11-23T05:02:06;5.70;99.90
22742;DHT22;11538;48.884;8.696;2022-11-23T05:04:33;5.80;99.90
22742;DHT22;11538;48.884;8.696;2022-11-23T05:07:00;5.70;99.90
22742;DHT22;11538;48.884;8.696;2022-11-23T05:09:27;5.80;99.90
22742;DHT22;11538;48.884;8.696;2022-11-23T05:11:54;5.70;99.90
22742;DHT22;11538;48.884;8.696;2022-11-23T05:14:20;5.70;99.90
22742;DHT22;11538;48.884;8.696;2022-11-23T05:16:47;5.60;99.90
22742;DHT22;11538;48.884;8.696;2022-11-23T05:19:14;5.60;99.90
22742;DHT22;11538;48.884;8.696;2022-11-23T05:21:41;5.60;99.90
22742;DHT22;11538;48.884;8.696;2022-11-23T05:24:07;5.60;99.90
22742;DHT22;11538;48.884;8.696;2022-11-23T05:26:34;5.50;99.90
22742;DHT22;11538;48.884;8.696;2022-11-23T05:29:01;5.50;99.90
22742;DHT22;11538;48.884;8.696;2022-11-23T05:31:28;5.50;99.90
22742;DHT22;11538;48.884;8.696;2022-11-23T05:33:55;5.40;99.90
22742;DHT22;11538;48.884;8.696;2022-11-23T05:36:23;5.40;99.90
22742;DHT22;11538;48.884;8.696;2022-11-23T05:38:52;5.30;99.90
22742;DHT22;11538;48.884;8.696;2022-11-23T05:41:19;5.30;99.90
22742;DHT22;11538;48.884;8.696;2022-11-23T05:43:46;5.30;99.90
22742;DHT22;11538;48.884;8.696;2022-11-23T05:46:12;5.30;99.90
22742;DHT22;11538;48.884;8.696;2022-11-23T05:48:39;5.30;99.90
22742;DHT22;11538;48.884;8.696;2022-11-23T05:51:06;5.30;99.90
22742;DHT22;11538;48.884;8.696;2022-11-23T05:53:33;5.30;99.90
22742;DHT22;11538;48.884;8.696;2022-11-23T05:56:00;5.40;99.90
22742;DHT22;11538;48.884;8.696;2022-11-23T05:58:29;5.40;99.90
22742;DHT22;11538;48.884;8.696;2022-11-23T06:00:56;5.40;99.90
22742;DHT22;11538;48.884;8.696;2022-11-23T06:03:26;5.40;99.90
22742;DHT22;11538;48.884;8.696;2022-11-23T06:05:53;5.50;99.90
22742;DHT22;11538;48.884;8.696;2022-11-23T06:08:21;5.50;99.90
22742;DHT22;11538;48.884;8.696;2022-11-23T06:10:48;5.50;99.90
22742;DHT22;11538;48.884;8.696;2022-11-23T06:13:14;5.60;99.90
22742;DHT22;11538;48.884;8.696;2022-11-23T06:15:41;5.60;99.90
22742;DHT22;11538;48.884;8.696;2022-11-23T06:18:08;5.70;99.90
22742;DHT22;11538;48.884;8.696;2022-11-23T06:20:36;5.70;99.90
22742;DHT22;11538;48.884;8.696;2022-11-23T06:23:02;5.70;99.90
22742;DHT22;11538;48.884;8.696;2022-11-23T06:25:29;5.70;99.90
22742;DHT22;11538;48.884;8.696;2022-11-23T06:27:58;5.70;99.90
22742;DHT22;11538;48.884;8.696;2022-11-23T06:30:27;5.70;99.90
22742;DHT22;11538;48.884;8.696;2022-11-23T06:32:55;5.70;99.90
22742;DHT22;11538;48.884;8.696;2022-11-23T06:35:23;5.70;99.90
22742;DHT22;11538;48.884;8.696;2022-11-23T06:37:50;5.70;99.90
22742;DHT22;11538;48.884;8.696;2022-11-23T06:40:20;5.70;99.90
22742;DHT22;11538;48.884;8.696;2022-11-23T06:42:48;5.70;99.90
22742;DHT22;11538;48.884;8.696;2022-11-23T06:45:15;5.70;99.90
22742;DHT22;11538;48.884;8.696;2022-11-23T06:47:41;5.70;99.90
22742;DHT22;11538;48.884;8.696;2022-11-23T06:50:09;5.70;99.90
22742;DHT22;11538;48.884;8.696;2022-11-23T06:52:36;5.70;99.90
22742;DHT22;11538;48.884;8.696;2022-11-23T06:55:02;5.70;99.90
22742;DHT22;11538;48.884;8.696;2022-11-23T06:57:29;5.70;99.90
22742;DHT22;11538;48.884;8.696;2022-11-23T06:59:56;5.60;99.90
22742;DHT22;11538;48.884;8.696;2022-11-23T07:02:23;5.60;99.90
22742;DHT22;11538;48.884;8.696;2022-11-23T07:04:50;5.60;99.90
22742;DHT22;11538;48.884;8.696;2022-11-23T07:07:18;5.60;99.90
22742;DHT22;11538;48.884;8.696;2022-11-23T07:09:45;5.60;99.90
22742;DHT22;11538;48.884;8.696;2022-11-23T07:12:13;5.60;99.90
22742;DHT22;11538;48.884;8.696;2022-11-23T07:14:40;5.60;99.90
22742;DHT22;11538;48.884;8.696;2022-11-23T07:17:07;5.60;99.90
22742;DHT22;11538;48.884;8.696;2022-11-23T07:19:33;5.60;99.90
22742;DHT22;11538;48.884;8.696;2022-11-23T07:22:00;5.60;99.90
22742;DHT22;11538;48.884;8.696;2022-11-23T07:24:27;5.50;99.90
22742;DHT22;11538;48.884;8.696;2022-11-23T07:27:01;5.50;99.90
22742;DHT22;11538;48.884;8.696;2022-11-23T07:29:28;5.50;99.90
22742;DHT22;11538;48.884;8.696;2022-11-23T07:31:56;5.50;99.90
22742;DHT22;11538;48.884;8.696;2022-11-23T07:34:22;5.50;99.90
22742;DHT22;11538;48.884;8.696;2022-11-23T07:36:49;5.50;99.90
22742;DHT22;11538;48.884;8.696;2022-11-23T07:39:16;5.50;99.90
22742;DHT22;11538;48.884;8.696;2022-11-23T07:41:42;5.50;99.90
22742;DHT22;11538;48.884;8.696;2022-11-23T07:44:09;5.50;99.90
22742;DHT22;11538;48.884;8.696;2022-11-23T07:46:36;5.50;99.90
22742;DHT22;11538;48.884;8.696;2022-11-23T07:49:03;5.50;99.90
22742;DHT22;11538;48.884;8.696;2022-11-23T07:51:30;5.50;99.90
22742;DHT22;11538;48.884;8.696;2022-11-23T07:53:57;5.50;99.90
22742;DHT22;11538;48.884;8.696;2022-11-23T07:56:23;5.50;99.90
22742;DHT22;11538;48.884;8.696;2022-11-23T07:58:50;5.50;99.90
22742;DHT22;11538;48.884;8.696;2022-11-23T08:01:18;5.60;99.90
22742;DHT22;11538;48.884;8.696;2022-11-23T08:03:45;5.60;99.90
22742;DHT22;11538;48.884;8.696;2022-11-23T08:06:12;5.60;99.90
22742;DHT22;11538;48.884;8.696;2022-11-23T08:08:39;5.70;99.90
22742;DHT22;11538;48.884;8.696;2022-11-23T08:11:07;5.70;99.90
22742;DHT22;11538;48.884;8.696;2022-11-23T08:13:35;5.80;99.90
22742;DHT22;11538;48.884;8.696;2022-11-23T08:16:02;5.80;99.90
22742;DHT22;11538;48.884;8.696;2022-11-23T08:18:32;5.80;99.90
22742;DHT22;11538;48.884;8.696;2022-11-23T08:20:59;5.90;99.90
22742;DHT22;11538;48.884;8.696;2022-11-23T08:23:26;6.00;99.90
22742;DHT22;11538;48.884;8.696;2022-11-23T08:25:53;6.10;99.90
22742;DHT22;11538;48.884;8.696;2022-11-23T08:28:20;6.10;99.90
22742;DHT22;11538;48.884;8.696;2022-11-23T08:30:47;6.20;99.90
22742;DHT22;11538;48.884;8.696;2022-11-23T08:33:14;6.30;99.90
22742;DHT22;11538;48.884;8.696;2022-11-23T08:35:41;6.40;99.90
22742;DHT22;11538;48.884;8.696;2022-11-23T08:38:08;6.60;99.90
22742;DHT22;11538;48.884;8.696;2022-11-23T08:40:35;6.70;99.90
22742;DHT22;11538;48.884;8.696;2022-11-23T08:43:03;6.80;99.90
22742;DHT22;11538;48.884;8.696;2022-11-23T08:45:31;7.00;99.90
22742;DHT22;11538;48.884;8.696;2022-11-23T08:47:58;7.10;99.90
22742;DHT22;11538;48.884;8.696;2022-11-23T08:50:26;7.20;99.90
22742;DHT22;11538;48.884;8.696;2022-11-23T08:52:55;7.40;99.90
22742;DHT22;11538;48.884;8.696;2022-11-23T08:55:23;7.50;99.90
22742;DHT22;11538;48.884;8.696;2022-11-23T08:57:57;7.70;99.90
22742;DHT22;11538;48.884;8.696;2022-11-23T09:00:25;7.80;99.90
22742;DHT22;11538;48.884;8.696;2022-11-23T09:02:52;8.00;99.90
22742;DHT22;11538;48.884;8.696;2022-11-23T09:05:20;8.20;99.90
22742;DHT22;11538;48.884;8.696;2022-11-23T09:07:47;8.30;99.90
22742;DHT22;11538;48.884;8.696;2022-11-23T09:10:14;8.50;99.90
22742;DHT22;11538;48.884;8.696;2022-11-23T09:12:45;8.60;99.90
22742;DHT22;11538;48.884;8.696;2022-11-23T09:15:13;8.80;99.90
22742;DHT22;11538;48.884;8.696;2022-11-23T09:17:40;8.90;99.90
22742;DHT22;11538;48.884;8.696;2022-11-23T09:20:07;9.00;99.90
22742;DHT22;11538;48.884;8.696;2022-11-23T09:22:35;9.10;99.90
22742;DHT22;11538;48.884;8.696;2022-11-23T09:25:03;9.30;99.90
22742;DHT22;11538;48.884;8.696;2022-11-23T09:27:30;9.40;99.90
22742;DHT22;11538;48.884;8.696;2022-11-23T09:29:57;9.50;99.90
22742;DHT22;11538;48.884;8.696;2022-11-23T09:32:23;9.60;99.90
22742;DHT22;11538;48.884;8.696;2022-11-23T09:34:50;9.70;99.90
22742;DHT22;11538;48.884;8.696;2022-11-23T09:37:17;9.80;99.90
22742;DHT22;11538;48.884;8.696;2022-11-23T09:39:44;9.90;99.90
22742;DHT22;11538;48.884;8.696;2022-11-23T09:47:53;10.20;99.90
22742;DHT22;11538;48.884;8.696;2022-11-23T09:50:49;10.30;99.90
22742;DHT22;11538;48.884;8.696;2022-11-23T09:53:32;10.40;99.90
22742;DHT22;11538;48.884;8.696;2022-11-23T09:56:22;10.60;99.90
22742;DHT22;11538;48.884;8.696;2022-11-23T09:58:53;10.70;99.90
22742;DHT22;11538;48.884;8.696;2022-11-23T10:01:22;10.70;99.90
22742;DHT22;11538;48.884;8.696;2022-11-23T10:03:51;10.80;99.90
22742;DHT22;11538;48.884;8.696;2022-11-23T10:06:27;10.90;99.90
22742;DHT22;11538;48.884;8.696;2022-11-23T10:14:41;10.90;99.90
22742;DHT22;11538;48.884;8.696;2022-11-23T10:20:06;10.90;99.90
22742;DHT22;11538;48.884;8.696;2022-11-23T10:22:41;10.90;99.90
22742;DHT22;11538;48.884;8.696;2022-11-23T10:25:22;10.90;99.90
22742;DHT22;11538;48.884;8.696;2022-11-23T10:27:51;10.80;99.90
22742;DHT22;11538;48.884;8.696;2022-11-23T10:30:23;10.80;99.90
22742;DHT22;11538;48.884;8.696;2022-11-23T10:32:58;10.80;99.90
22742;DHT22;11538;48.884;8.696;2022-11-23T10:35:31;10.90;99.90
22742;DHT22;11538;48.884;8.696;2022-11-23T10:38:13;11.00;99.90
22742;DHT22;11538;48.884;8.696;2022-11-23T10:41:04;11.00;99.90
22742;DHT22;11538;48.884;8.696;2022-11-23T10:43:37;11.00;99.90
22742;DHT22;11538;48.884;8.696;2022-11-23T10:46:21;11.10;99.90
22742;DHT22;11538;48.884;8.696;2022-11-23T10:48:50;11.10;99.90
22742;DHT22;11538;48.884;8.696;2022-11-23T10:54:02;11.20;99.90
22742;DHT22;11538;48.884;8.696;2022-11-23T10:56:46;11.30;99.90
22742;DHT22;11538;48.884;8.696;2022-11-23T10:59:28;11.30;99.90
22742;DHT22;11538;48.884;8.696;2022-11-23T11:02:02;11.40;99.90
22742;DHT22;11538;48.884;8.696;2022-11-23T11:04:45;11.40;99.90
22742;DHT22;11538;48.884;8.696;2022-11-23T11:07:31;11.50;99.90
22742;DHT22;11538;48.884;8.696;2022-11-23T11:10:02;11.60;99.90
22742;DHT22;11538;48.884;8.696;2022-11-23T11:12:32;11.70;99.90
22742;DHT22;11538;48.884;8.696;2022-11-23T11:17:38;11.80;99.90
22742;DHT22;11538;48.884;8.696;2022-11-23T11:23:02;12.00;99.90
22742;DHT22;11538;48.884;8.696;2022-11-23T11:25:42;12.10;99.90
22742;DHT22;11538;48.884;8.696;2022-11-23T11:28:23;12.20;99.90
22742;DHT22;11538;48.884;8.696;2022-11-23T11:33:43;12.40;99.90
22742;DHT22;11538;48.884;8.696;2022-11-23T11:36:16;12.40;99.90
22742;DHT22;11538;48.884;8.696;2022-11-23T11:38:47;12.60;99.90
22742;DHT22;11538;48.884;8.696;2022-11-23T11:41:38;12.70;99.90
22742;DHT22;11538;48.884;8.696;2022-11-23T11:44:10;12.70;99.90
22742;DHT22;11538;48.884;8.696;2022-11-23T11:46:45;12.70;99.90
22742;DHT22;11538;48.884;8.696;2022-11-23T11:49:28;12.80;99.90
22742;DHT22;11538;48.884;8.696;2022-11-23T11:52:04;12.80;99.90
22742;DHT22;11538;48.884;8.696;2022-11-23T11:54:42;12.80;99.90
22742;DHT22;11538;48.884;8.696;2022-11-23T11:59:52;12.80;99.90
22742;DHT22;11538;48.884;8.696;2022-11-23T12:10:11;13.00;99.90
22742;DHT22;11538;48.884;8.696;2022-11-23T12:12:42;13.00;99.90
22742;DHT22;11538;48.884;8.696;2022-11-23T12:15:17;13.00;99.90
22742;DHT22;11538;48.884;8.696;2022-11-23T12:43:55;12.50;99.90
22742;DHT22;11538;48.884;8.696;2022-11-23T12:55:17;12.40;99.90
22742;DHT22;11538;48.884;8.696;2022-11-23T12:58:11;12.30;99.90
22742;DHT22;11538;48.884;8.696;2022-11-23T13:00:50;12.30;99.90
22742;DHT22;11538;48.884;8.696;2022-11-23T13:03:33;12.20;99.90
22742;DHT22;11538;48.884;8.696;2022-11-23T13:12:43;12.00;99.90
22742;DHT22;11538;48.884;8.696;2022-11-23T13:23:27;11.70;99.90
22742;DHT22;11538;48.884;8.696;2022-11-23T13:28:41;11.60;99.90
22742;DHT22;11538;48.884;8.696;2022-11-23T13:33:43;11.60;99.90
22742;DHT22;11538;48.884;8.696;2022-11-23T13:42:25;11.50;99.90
22742;DHT22;11538;48.884;8.696;2022-11-23T13:50:32;11.40;99.90
22742;DHT22;11538;48.884;8.696;2022-11-23T13:52:59;11.40;99.90
22742;DHT22;11538;48.884;8.696;2022-11-23T13:55:34;11.30;99.90
22742;DHT22;11538;48.884;8.696;2022-11-23T13:58:51;11.20;99.90
22742;DHT22;11538;48.884;8.696;2022-11-23T14:00:53;11.10;99.90
22742;DHT22;11538;48.884;8.696;2022-11-23T14:09:23;11.00;99.90
22742;DHT22;11538;48.884;8.696;2022-11-23T14:14:48;10.90;99.90
22742;DHT22;11538;48.884;8.696;2022-11-23T14:20:31;10.90;99.90
22742;DHT22;11538;48.884;8.696;2022-11-23T14:32:03;10.70;99.90
22742;DHT22;11538;48.884;8.696;2022-11-23T14:43:29;10.60;99.90
22742;DHT22;11538;48.884;8.696;2022-11-23T14:46:03;10.60;99.90
22742;DHT22;11538;48.884;8.696;2022-11-23T14:48:33;10.50;99.90
22742;DHT22;11538;48.884;8.696;2022-11-23T14:51:02;10.50;99.90
22742;DHT22;11538;48.884;8.696;2022-11-23T14:53:33;10.50;99.90
22742;DHT22;11538;48.884;8.696;2022-11-23T14:58:47;10.40;99.90
22742;DHT22;11538;48.884;8.696;2022-11-23T15:01:19;10.40;99.90
22742;DHT22;11538;48.884;8.696;2022-11-23T15:06:49;10.30;99.90
22742;DHT22;11538;48.884;8.696;2022-11-23T15:09:40;10.20;99.90
22742;DHT22;11538;48.884;8.696;2022-11-23T15:12:25;10.20;99.90
22742;DHT22;11538;48.884;8.696;2022-11-23T15:14:55;10.10;99.90
22742;DHT22;11538;48.884;8.696;2022-11-23T15:17:25;10.10;99.90
22742;DHT22;11538;48.884;8.696;2022-11-23T15:19:54;10.00;99.90
22742;DHT22;11538;48.884;8.696;2022-11-23T15:22:22;10.00;99.90
22742;DHT22;11538;48.884;8.696;2022-11-23T15:24:50;10.00;99.90
22742;DHT22;11538;48.884;8.696;2022-11-23T15:27:23;9.90;99.90
22742;DHT22;11538;48.884;8.696;2022-11-23T15:29:56;9.90;99.90
22742;DHT22;11538;48.884;8.696;2022-11-23T15:32:30;9.90;99.90
22742;DHT22;11538;48.884;8.696;2022-11-23T15:35:02;9.90;99.90
22742;DHT22;11538;48.884;8.696;2022-11-23T15:37:35;9.90;99.90
22742;DHT22;11538;48.884;8.696;2022-11-23T15:40:15;9.80;99.90
22742;DHT22;11538;48.884;8.696;2022-11-23T15:42:44;9.80;99.90
22742;DHT22;11538;48.884;8.696;2022-11-23T15:48:16;9.80;99.90
22742;DHT22;11538;48.884;8.696;2022-11-23T15:50:47;9.70;99.90
22742;DHT22;11538;48.884;8.696;2022-11-23T15:53:14;9.80;99.90
22742;DHT22;11538;48.884;8.696;2022-11-23T15:55:41;9.70;99.90
22742;DHT22;11538;48.884;8.696;2022-11-23T15:58:08;9.70;99.90
22742;DHT22;11538;48.884;8.696;2022-11-23T16:00:45;9.70;99.90
22742;DHT22;11538;48.884;8.696;2022-11-23T16:03:29;9.70;99.90
22742;DHT22;11538;48.884;8.696;2022-11-23T16:06:14;9.70;99.90
22742;DHT22;11538;48.884;8.696;2022-11-23T16:08:43;9.60;99.90
22742;DHT22;11538;48.884;8.696;2022-11-23T16:14:11;9.60;99.90
22742;DHT22;11538;48.884;8.696;2022-11-23T16:16:40;9.60;99.90
22742;DHT22;11538;48.884;8.696;2022-11-23T16:19:20;9.60;99.90
22742;DHT22;11538;48.884;8.696;2022-11-23T16:21:51;9.60;99.90
22742;DHT22;11538;48.884;8.696;2022-11-23T16:24:27;9.70;99.90
22742;DHT22;11538;48.884;8.696;2022-11-23T16:26:57;9.70;99.90
22742;DHT22;11538;48.884;8.696;2022-11-23T16:29:31;9.70;99.90
22742;DHT22;11538;48.884;8.696;2022-11-23T16:32:02;9.70;99.90
22742;DHT22;11538;48.884;8.696;2022-11-23T16:34:33;9.70;99.90
22742;DHT22;11538;48.884;8.696;2022-11-23T16:37:01;9.70;99.90
22742;DHT22;11538;48.884;8.696;2022-11-23T16:39:29;9.70;99.90
22742;DHT22;11538;48.884;8.696;2022-11-23T16:41:56;9.70;99.90
22742;DHT22;11538;48.884;8.696;2022-11-23T16:44:23;9.60;99.90
22742;DHT22;11538;48.884;8.696;2022-11-23T16:46:50;9.60;99.90
22742;DHT22;11538;48.884;8.696;2022-11-23T16:49:18;9.50;99.90
22742;DHT22;11538;48.884;8.696;2022-11-23T16:51:47;9.40;99.90
22742;DHT22;11538;48.884;8.696;2022-11-23T16:54:22;9.30;99.90
22742;DHT22;11538;48.884;8.696;2022-11-23T16:56:51;9.20;99.90
22742;DHT22;11538;48.884;8.696;2022-11-23T16:59:18;9.10;99.90
22742;DHT22;11538;48.884;8.696;2022-11-23T17:01:48;9.10;99.90
22742;DHT22;11538;48.884;8.696;2022-11-23T17:04:23;9.00;99.90
22742;DHT22;11538;48.884;8.696;2022-11-23T17:06:50;9.00;99.90
22742;DHT22;11538;48.884;8.696;2022-11-23T17:09:17;9.00;99.90
22742;DHT22;11538;48.884;8.696;2022-11-23T17:11:45;9.00;99.90
22742;DHT22;11538;48.884;8.696;2022-11-23T17:14:13;9.00;99.90
22742;DHT22;11538;48.884;8.696;2022-11-23T17:16:56;8.90;99.90
22742;DHT22;11538;48.884;8.696;2022-11-23T17:19:27;8.90;99.90
22742;DHT22;11538;48.884;8.696;2022-11-23T17:21:56;8.90;99.90
22742;DHT22;11538;48.884;8.696;2022-11-23T17:24:23;8.80;99.90
22742;DHT22;11538;48.884;8.696;2022-11-23T17:26:50;8.80;99.90
22742;DHT22;11538;48.884;8.696;2022-11-23T17:29:19;8.70;99.90
22742;DHT22;11538;48.884;8.696;2022-11-23T17:31:47;8.70;99.90
22742;DHT22;11538;48.884;8.696;2022-11-23T17:34:15;8.60;99.90
22742;DHT22;11538;48.884;8.696;2022-11-23T17:36:43;8.60;99.90
22742;DHT22;11538;48.884;8.696;2022-11-23T17:39:24;8.60;99.90
22742;DHT22;11538;48.884;8.696;2022-11-23T17:41:51;8.60;99.90
22742;DHT22;11538;48.884;8.696;2022-11-23T17:44:19;8.50;99.90
22742;DHT22;11538;48.884;8.696;2022-11-23T17:46:46;8.50;99.90
22742;DHT22;11538;48.884;8.696;2022-11-23T17:49:14;8.50;99.90
22742;DHT22;11538;48.884;8.696;2022-11-23T17:51:43;8.50;99.90
22742;DHT22;11538;48.884;8.696;2022-11-23T17:54:11;8.40;99.90
22742;DHT22;11538;48.884;8.696;2022-11-23T17:56:38;8.40;99.90
22742;DHT22;11538;48.884;8.696;2022-11-23T17:59:04;8.40;99.90
22742;DHT22;11538;48.884;8.696;2022-11-23T18:01:34;8.40;99.90
22742;DHT22;11538;48.884;8.696;2022-11-23T18:04:02;8.30;99.90
22742;DHT22;11538;48.884;8.696;2022-11-23T18:06:30;8.30;99.90
22742;DHT22;11538;48.884;8.696;2022-11-23T18:08:57;8.30;99.90
22742;DHT22;11538;48.884;8.696;2022-11-23T18:11:24;8.30;99.90
22742;DHT22;11538;48.884;8.696;2022-11-23T18:13:51;8.30;99.90
22742;DHT22;11538;48.884;8.696;2022-11-23T18:16:20;8.30;99.90
22742;DHT22;11538;48.884;8.696;2022-11-23T18:18:49;8.30;99.90
22742;DHT22;11538;48.884;8.696;2022-11-23T18:21:16;8.30;99.90
22742;DHT22;11538;48.884;8.696;2022-11-23T18:23:44;8.30;99.90
22742;DHT22;11538;48.884;8.696;2022-11-23T18:26:21;8.20;99.90